sensor_id;sensor_type;location;lat;lon;timestamp;P1;durP1;ratioP1;P2;durP2;ratioP2
3597;SDS011;1813;52.016;8.714;2023-05-10T00:02:14;15.17;;;12.93;;
3597;SDS011;1813;52.016;8.714;2023-05-10T00:04:50;15.13;;;12.90;;
3597;SDS011;1813;52.016;8.714;2023-05-10T00:07:45;14.23;;;12.63;;
3597;SDS011;1813;52.016;8.714;2023-05-10T00:10:34;19.80;;;13.80;;
3597;SDS011;1813;52.016;8.714;2023-05-10T00:13:22;14.97;;;12.47;;
3597;SDS011;1813;52.016;8.714;2023-05-10T00:16:14;13.60;;;11.30;;
3597;SDS011;1813;52.016;8.714;2023-05-10T00:19:00;15.80;;;12.47;;
3597;SDS011;1813;52.016;8.714;2023-05-10T00:21:40;16.03;;;13.27;;
3597;SDS011;1813;52.016;8.714;2023-05-10T00:24:33;15.00;;;12.43;;
3597;SDS011;1813;52.016;8.714;2023-05-10T00:27:23;16.50;;;12.60;;
3597;SDS011;1813;52.016;8.714;2023-05-10T00:30:13;14.23;;;11.97;;
3597;SDS011;1813;52.016;8.714;2023-05-10T00:33:00;13.80;;;11.50;;
3597;SDS011;1813;52.016;8.714;2023-05-10T00:39:12;17.90;;;13.20;;
3597;SDS011;1813;52.016;8.714;2023-05-10T00:41:53;15.60;;;12.80;;
3597;SDS011;1813;52.016;8.714;2023-05-10T00:44:36;16.47;;;12.93;;
3597;SDS011;1813;52.016;8.714;2023-05-10T00:47:20;18.10;;;13.17;;
3597;SDS011;1813;52.016;8.714;2023-05-10T00:50:02;17.70;;;14.37;;
3597;SDS011;1813;52.016;8.714;2023-05-10T00:52:46;16.17;;;13.17;;
3597;SDS011;1813;52.016;8.714;2023-05-10T00:55:23;15.47;;;12.87;;
3597;SDS011;1813;52.016;8.714;2023-05-10T00:57:57;17.10;;;13.80;;
3597;SDS011;1813;52.016;8.714;2023-05-10T01:00:32;17.17;;;13.57;;
3597;SDS011;1813;52.016;8.714;2023-05-10T01:03:07;20.40;;;16.30;;
3597;SDS011;1813;52.016;8.714;2023-05-10T01:05:44;18.03;;;14.90;;
3597;SDS011;1813;52.016;8.714;2023-05-10T01:08:17;16.70;;;14.20;;
3597;SDS011;1813;52.016;8.714;2023-05-10T01:10:51;19.17;;;14.50;;
3597;SDS011;1813;52.016;8.714;2023-05-10T01:13:29;21.10;;;14.67;;
3597;SDS011;1813;52.016;8.714;2023-05-10T01:16:06;20.87;;;15.23;;
3597;SDS011;1813;52.016;8.714;2023-05-10T01:18:40;20.20;;;15.00;;
3597;SDS011;1813;52.016;8.714;2023-05-10T01:21:21;25.33;;;15.10;;
3597;SDS011;1813;52.016;8.714;2023-05-10T01:27:15;18.13;;;14.67;;
3597;SDS011;1813;52.016;8.714;2023-05-10T01:30:01;19.10;;;14.10;;
3597;SDS011;1813;52.016;8.714;2023-05-10T01:32:46;20.33;;;14.20;;
3597;SDS011;1813;52.016;8.714;2023-05-10T01:35:26;24.90;;;14.47;;
3597;SDS011;1813;52.016;8.714;2023-05-10T01:38:08;18.77;;;15.07;;
3597;SDS011;1813;52.016;8.714;2023-05-10T01:40:52;19.07;;;14.43;;
3597;SDS011;1813;52.016;8.714;2023-05-10T01:43:48;19.47;;;14.47;;
3597;SDS011;1813;52.016;8.714;2023-05-10T01:46:28;17.90;;;13.57;;
3597;SDS011;1813;52.016;8.714;2023-05-10T01:49:11;16.73;;;13.67;;
3597;SDS011;1813;52.016;8.714;2023-05-10T01:51:53;20.37;;;15.07;;
3597;SDS011;1813;52.016;8.714;2023-05-10T01:54:32;20.30;;;15.83;;
3597;SDS011;1813;52.016;8.714;2023-05-10T01:57:07;20.20;;;16.00;;
3597;SDS011;1813;52.016;8.714;2023-05-10T01:59:45;20.50;;;16.63;;
3597;SDS011;1813;52.016;8.714;2023-05-10T02:02:23;19.93;;;16.10;;
3597;SDS011;1813;52.016;8.714;2023-05-10T02:05:00;23.27;;;17.00;;
3597;SDS011;1813;52.016;8.714;2023-05-10T02:07:36;24.60;;;18.63;;
3597;SDS011;1813;52.016;8.714;2023-05-10T02:10:11;23.63;;;17.60;;
3597;SDS011;1813;52.016;8.714;2023-05-10T02:12:47;23.07;;;17.93;;
3597;SDS011;1813;52.016;8.714;2023-05-10T02:15:23;24.23;;;18.27;;
3597;SDS011;1813;52.016;8.714;2023-05-10T02:17:59;23.57;;;17.07;;
3597;SDS011;1813;52.016;8.714;2023-05-10T02:20:38;22.00;;;16.50;;
3597;SDS011;1813;52.016;8.714;2023-05-10T02:23:13;25.20;;;17.30;;
3597;SDS011;1813;52.016;8.714;2023-05-10T02:25:50;27.20;;;17.67;;
3597;SDS011;1813;52.016;8.714;2023-05-10T02:28:26;31.07;;;18.87;;
3597;SDS011;1813;52.016;8.714;2023-05-10T02:31:01;28.90;;;15.30;;
3597;SDS011;1813;52.016;8.714;2023-05-10T02:33:35;5.00;;;4.33;;
3597;SDS011;1813;52.016;8.714;2023-05-10T02:36:14;6.27;;;5.50;;
3597;SDS011;1813;52.016;8.714;2023-05-10T02:38:49;8.17;;;6.20;;
3597;SDS011;1813;52.016;8.714;2023-05-10T02:41:27;8.27;;;6.17;;
3597;SDS011;1813;52.016;8.714;2023-05-10T02:44:04;9.47;;;7.17;;
3597;SDS011;1813;52.016;8.714;2023-05-10T02:46:41;7.43;;;5.30;;
3597;SDS011;1813;52.016;8.714;2023-05-10T02:49:14;6.87;;;5.03;;
3597;SDS011;1813;52.016;8.714;2023-05-10T02:51:51;5.40;;;4.87;;
3597;SDS011;1813;52.016;8.714;2023-05-10T02:54:30;5.57;;;4.90;;
3597;SDS011;1813;52.016;8.714;2023-05-10T02:57:06;7.13;;;4.70;;
3597;SDS011;1813;52.016;8.714;2023-05-10T02:59:43;4.83;;;3.90;;
3597;SDS011;1813;52.016;8.714;2023-05-10T03:02:17;4.50;;;4.10;;
3597;SDS011;1813;52.016;8.714;2023-05-10T03:04:51;5.40;;;4.33;;
3597;SDS011;1813;52.016;8.714;2023-05-10T03:07:28;6.57;;;5.17;;
3597;SDS011;1813;52.016;8.714;2023-05-10T03:10:03;5.70;;;5.10;;
3597;SDS011;1813;52.016;8.714;2023-05-10T03:12:47;5.30;;;4.80;;
3597;SDS011;1813;52.016;8.714;2023-05-10T03:15:31;6.40;;;5.17;;
3597;SDS011;1813;52.016;8.714;2023-05-10T03:18:15;7.87;;;5.57;;
3597;SDS011;1813;52.016;8.714;2023-05-10T03:20:53;7.47;;;6.50;;
3597;SDS011;1813;52.016;8.714;2023-05-10T03:23:35;10.20;;;7.27;;
3597;SDS011;1813;52.016;8.714;2023-05-10T03:26:17;12.27;;;6.97;;
3597;SDS011;1813;52.016;8.714;2023-05-10T03:28:55;8.60;;;7.70;;
3597;SDS011;1813;52.016;8.714;2023-05-10T03:31:29;9.47;;;8.37;;
3597;SDS011;1813;52.016;8.714;2023-05-10T03:34:04;12.50;;;9.33;;
3597;SDS011;1813;52.016;8.714;2023-05-10T03:36:37;13.80;;;9.97;;
3597;SDS011;1813;52.016;8.714;2023-05-10T03:39:14;14.70;;;10.93;;
3597;SDS011;1813;52.016;8.714;2023-05-10T03:41:54;14.33;;;10.93;;
3597;SDS011;1813;52.016;8.714;2023-05-10T03:44:28;15.90;;;12.40;;
3597;SDS011;1813;52.016;8.714;2023-05-10T03:47:03;17.37;;;12.73;;
3597;SDS011;1813;52.016;8.714;2023-05-10T03:49:37;19.13;;;12.93;;
3597;SDS011;1813;52.016;8.714;2023-05-10T03:52:11;18.70;;;13.40;;
3597;SDS011;1813;52.016;8.714;2023-05-10T03:54:47;21.70;;;13.60;;
3597;SDS011;1813;52.016;8.714;2023-05-10T03:57:21;18.43;;;13.50;;
3597;SDS011;1813;52.016;8.714;2023-05-10T03:59:55;19.53;;;14.23;;
3597;SDS011;1813;52.016;8.714;2023-05-10T04:02:29;20.97;;;14.53;;
3597;SDS011;1813;52.016;8.714;2023-05-10T04:05:04;16.57;;;13.13;;
3597;SDS011;1813;52.016;8.714;2023-05-10T04:07:39;20.60;;;14.30;;
3597;SDS011;1813;52.016;8.714;2023-05-10T04:10:17;20.40;;;14.87;;
3597;SDS011;1813;52.016;8.714;2023-05-10T04:12:51;20.73;;;14.43;;
3597;SDS011;1813;52.016;8.714;2023-05-10T04:15:25;19.43;;;13.73;;
3597;SDS011;1813;52.016;8.714;2023-05-10T04:17:59;19.33;;;14.43;;
3597;SDS011;1813;52.016;8.714;2023-05-10T04:20:33;17.50;;;13.70;;
3597;SDS011;1813;52.016;8.714;2023-05-10T04:23:06;19.70;;;14.43;;
3597;SDS011;1813;52.016;8.714;2023-05-10T04:25:43;18.33;;;13.40;;
3597;SDS011;1813;52.016;8.714;2023-05-10T04:28:16;17.67;;;13.00;;
3597;SDS011;1813;52.016;8.714;2023-05-10T04:30:50;10.67;;;8.17;;
3597;SDS011;1813;52.016;8.714;2023-05-10T04:33:24;11.07;;;7.20;;
3597;SDS011;1813;52.016;8.714;2023-05-10T04:35:58;7.30;;;6.17;;
3597;SDS011;1813;52.016;8.714;2023-05-10T04:38:32;7.70;;;5.70;;
3597;SDS011;1813;52.016;8.714;2023-05-10T04:41:09;4.80;;;4.20;;
3597;SDS011;1813;52.016;8.714;2023-05-10T04:43:44;4.70;;;4.00;;
3597;SDS011;1813;52.016;8.714;2023-05-10T04:46:19;3.63;;;3.23;;
3597;SDS011;1813;52.016;8.714;2023-05-10T04:48:53;2.67;;;2.47;;
3597;SDS011;1813;52.016;8.714;2023-05-10T04:51:26;2.20;;;2.00;;
3597;SDS011;1813;52.016;8.714;2023-05-10T04:54:00;2.60;;;1.87;;
3597;SDS011;1813;52.016;8.714;2023-05-10T04:56:37;3.10;;;1.80;;
3597;SDS011;1813;52.016;8.714;2023-05-10T04:59:11;2.13;;;1.50;;
3597;SDS011;1813;52.016;8.714;2023-05-10T05:01:45;1.70;;;1.60;;
3597;SDS011;1813;52.016;8.714;2023-05-10T05:04:19;2.87;;;1.90;;
3597;SDS011;1813;52.016;8.714;2023-05-10T05:06:53;1.80;;;1.70;;
3597;SDS011;1813;52.016;8.714;2023-05-10T05:09:27;1.70;;;1.60;;
3597;SDS011;1813;52.016;8.714;2023-05-10T05:12:05;1.80;;;1.70;;
3597;SDS011;1813;52.016;8.714;2023-05-10T05:14:44;3.00;;;2.00;;
3597;SDS011;1813;52.016;8.714;2023-05-10T05:17:18;2.23;;;2.03;;
3597;SDS011;1813;52.016;8.714;2023-05-10T05:19:52;1.90;;;1.80;;
3597;SDS011;1813;52.016;8.714;2023-05-10T05:22:26;2.70;;;2.13;;
3597;SDS011;1813;52.016;8.714;2023-05-10T05:25:00;2.20;;;2.00;;
3597;SDS011;1813;52.016;8.714;2023-05-10T05:27:37;2.13;;;2.03;;
3597;SDS011;1813;52.016;8.714;2023-05-10T05:30:11;3.73;;;2.20;;
3597;SDS011;1813;52.016;8.714;2023-05-10T05:32:45;3.27;;;2.70;;
3597;SDS011;1813;52.016;8.714;2023-05-10T05:35:19;3.80;;;2.40;;
3597;SDS011;1813;52.016;8.714;2023-05-10T05:37:53;3.10;;;2.83;;
3597;SDS011;1813;52.016;8.714;2023-05-10T05:40:26;3.07;;;2.87;;
3597;SDS011;1813;52.016;8.714;2023-05-10T05:43:03;4.10;;;3.30;;
3597;SDS011;1813;52.016;8.714;2023-05-10T05:45:36;3.43;;;3.13;;
3597;SDS011;1813;52.016;8.714;2023-05-10T05:48:10;3.83;;;3.03;;
3597;SDS011;1813;52.016;8.714;2023-05-10T05:50:44;4.27;;;3.83;;
3597;SDS011;1813;52.016;8.714;2023-05-10T05:53:18;5.97;;;3.73;;
3597;SDS011;1813;52.016;8.714;2023-05-10T05:55:52;4.40;;;4.00;;
3597;SDS011;1813;52.016;8.714;2023-05-10T05:58:30;4.37;;;3.97;;
3597;SDS011;1813;52.016;8.714;2023-05-10T06:01:04;4.53;;;4.03;;
3597;SDS011;1813;52.016;8.714;2023-05-10T06:03:38;4.50;;;3.83;;
3597;SDS011;1813;52.016;8.714;2023-05-10T06:06:11;4.13;;;3.73;;
3597;SDS011;1813;52.016;8.714;2023-05-10T06:08:45;4.03;;;3.63;;
3597;SDS011;1813;52.016;8.714;2023-05-10T06:11:19;5.50;;;4.33;;
3597;SDS011;1813;52.016;8.714;2023-05-10T06:13:56;4.73;;;4.23;;
3597;SDS011;1813;52.016;8.714;2023-05-10T06:16:30;4.20;;;3.40;;
3597;SDS011;1813;52.016;8.714;2023-05-10T06:19:04;4.47;;;3.67;;
3597;SDS011;1813;52.016;8.714;2023-05-10T06:21:38;4.20;;;3.63;;
3597;SDS011;1813;52.016;8.714;2023-05-10T06:24:12;3.87;;;3.57;;
3597;SDS011;1813;52.016;8.714;2023-05-10T06:26:45;3.87;;;3.57;;
3597;SDS011;1813;52.016;8.714;2023-05-10T06:29:22;5.20;;;4.30;;
3597;SDS011;1813;52.016;8.714;2023-05-10T06:31:56;4.63;;;4.23;;
3597;SDS011;1813;52.016;8.714;2023-05-10T06:34:30;4.67;;;4.20;;
3597;SDS011;1813;52.016;8.714;2023-05-10T06:37:04;6.00;;;4.10;;
3597;SDS011;1813;52.016;8.714;2023-05-10T06:39:38;5.47;;;4.53;;
3597;SDS011;1813;52.016;8.714;2023-05-10T06:42:12;4.80;;;4.10;;
3597;SDS011;1813;52.016;8.714;2023-05-10T06:44:52;4.47;;;4.07;;
3597;SDS011;1813;52.016;8.714;2023-05-10T06:47:26;7.93;;;4.27;;
3597;SDS011;1813;52.016;8.714;2023-05-10T06:50:00;4.03;;;3.63;;
3597;SDS011;1813;52.016;8.714;2023-05-10T06:52:34;6.13;;;4.03;;
3597;SDS011;1813;52.016;8.714;2023-05-10T06:55:08;4.80;;;4.30;;
3597;SDS011;1813;52.016;8.714;2023-05-10T06:57:42;7.40;;;3.70;;
3597;SDS011;1813;52.016;8.714;2023-05-10T07:00:19;4.00;;;3.60;;
3597;SDS011;1813;52.016;8.714;2023-05-10T07:02:53;3.97;;;3.60;;
3597;SDS011;1813;52.016;8.714;2023-05-10T07:05:27;4.63;;;3.60;;
3597;SDS011;1813;52.016;8.714;2023-05-10T07:08:01;3.90;;;3.40;;
3597;SDS011;1813;52.016;8.714;2023-05-10T07:10:34;6.13;;;3.70;;
3597;SDS011;1813;52.016;8.714;2023-05-10T07:13:08;5.37;;;3.97;;
3597;SDS011;1813;52.016;8.714;2023-05-10T07:15:45;5.20;;;3.10;;
3597;SDS011;1813;52.016;8.714;2023-05-10T07:18:18;4.17;;;3.47;;
3597;SDS011;1813;52.016;8.714;2023-05-10T07:20:52;6.47;;;3.80;;
3597;SDS011;1813;52.016;8.714;2023-05-10T07:23:26;4.60;;;3.07;;
3597;SDS011;1813;52.016;8.714;2023-05-10T07:26:00;7.50;;;3.83;;
3597;SDS011;1813;52.016;8.714;2023-05-10T07:28:34;4.93;;;3.63;;
3597;SDS011;1813;52.016;8.714;2023-05-10T07:31:11;4.67;;;3.50;;
3597;SDS011;1813;52.016;8.714;2023-05-10T07:33:44;5.20;;;3.73;;
3597;SDS011;1813;52.016;8.714;2023-05-10T07:36:18;5.70;;;3.37;;
3597;SDS011;1813;52.016;8.714;2023-05-10T07:38:52;7.27;;;4.00;;
3597;SDS011;1813;52.016;8.714;2023-05-10T07:41:27;4.60;;;3.90;;
3597;SDS011;1813;52.016;8.714;2023-05-10T07:44:01;5.90;;;4.33;;
3597;SDS011;1813;52.016;8.714;2023-05-10T07:46:37;6.53;;;5.20;;
3597;SDS011;1813;52.016;8.714;2023-05-10T07:49:11;8.27;;;5.10;;
3597;SDS011;1813;52.016;8.714;2023-05-10T07:51:45;9.40;;;5.27;;
3597;SDS011;1813;52.016;8.714;2023-05-10T07:54:19;11.60;;;5.67;;
3597;SDS011;1813;52.016;8.714;2023-05-10T07:56:53;7.77;;;5.83;;
3597;SDS011;1813;52.016;8.714;2023-05-10T07:59:27;10.03;;;6.50;;
3597;SDS011;1813;52.016;8.714;2023-05-10T08:02:03;8.53;;;6.30;;
3597;SDS011;1813;52.016;8.714;2023-05-10T08:04:38;8.77;;;6.20;;
3597;SDS011;1813;52.016;8.714;2023-05-10T08:07:12;9.33;;;6.77;;
3597;SDS011;1813;52.016;8.714;2023-05-10T08:09:46;12.53;;;7.77;;
3597;SDS011;1813;52.016;8.714;2023-05-10T08:12:20;10.67;;;8.40;;
3597;SDS011;1813;52.016;8.714;2023-05-10T08:14:53;11.60;;;8.57;;
3597;SDS011;1813;52.016;8.714;2023-05-10T08:17:30;12.00;;;8.87;;
3597;SDS011;1813;52.016;8.714;2023-05-10T08:20:04;16.70;;;10.00;;
3597;SDS011;1813;52.016;8.714;2023-05-10T08:22:39;20.10;;;10.07;;
3597;SDS011;1813;52.016;8.714;2023-05-10T08:25:12;16.57;;;10.53;;
3597;SDS011;1813;52.016;8.714;2023-05-10T08:27:46;15.73;;;10.30;;
3597;SDS011;1813;52.016;8.714;2023-05-10T08:30:20;18.63;;;11.47;;
3597;SDS011;1813;52.016;8.714;2023-05-10T08:32:57;14.77;;;10.73;;
3597;SDS011;1813;52.016;8.714;2023-05-10T08:35:31;18.53;;;11.70;;
3597;SDS011;1813;52.016;8.714;2023-05-10T08:38:05;21.50;;;12.80;;
3597;SDS011;1813;52.016;8.714;2023-05-10T08:40:39;19.03;;;11.90;;
3597;SDS011;1813;52.016;8.714;2023-05-10T08:43:16;18.60;;;12.00;;
3597;SDS011;1813;52.016;8.714;2023-05-10T08:45:50;21.20;;;13.10;;
3597;SDS011;1813;52.016;8.714;2023-05-10T08:48:29;22.00;;;13.07;;
3597;SDS011;1813;52.016;8.714;2023-05-10T08:51:03;23.83;;;13.20;;
3597;SDS011;1813;52.016;8.714;2023-05-10T08:53:38;20.70;;;13.00;;
3597;SDS011;1813;52.016;8.714;2023-05-10T08:56:12;25.10;;;14.33;;
3597;SDS011;1813;52.016;8.714;2023-05-10T08:58:47;21.63;;;13.53;;
3597;SDS011;1813;52.016;8.714;2023-05-10T09:01:22;18.93;;;13.17;;
3597;SDS011;1813;52.016;8.714;2023-05-10T09:03:59;20.60;;;13.27;;
3597;SDS011;1813;52.016;8.714;2023-05-10T09:06:33;25.50;;;12.87;;
3597;SDS011;1813;52.016;8.714;2023-05-10T09:09:07;21.20;;;12.93;;
3597;SDS011;1813;52.016;8.714;2023-05-10T09:11:41;24.53;;;14.30;;
3597;SDS011;1813;52.016;8.714;2023-05-10T09:14:16;22.23;;;13.50;;
3597;SDS011;1813;52.016;8.714;2023-05-10T09:16:51;21.13;;;13.07;;
3597;SDS011;1813;52.016;8.714;2023-05-10T09:19:28;23.77;;;13.83;;
3597;SDS011;1813;52.016;8.714;2023-05-10T09:22:02;26.10;;;14.40;;
3597;SDS011;1813;52.016;8.714;2023-05-10T09:24:35;26.57;;;14.10;;
3597;SDS011;1813;52.016;8.714;2023-05-10T09:27:14;24.17;;;13.83;;
3597;SDS011;1813;52.016;8.714;2023-05-10T09:29:48;27.87;;;14.17;;
3597;SDS011;1813;52.016;8.714;2023-05-10T09:32:29;24.60;;;13.37;;
3597;SDS011;1813;52.016;8.714;2023-05-10T09:35:13;25.00;;;13.60;;
3597;SDS011;1813;52.016;8.714;2023-05-10T09:37:49;25.83;;;14.20;;
3597;SDS011;1813;52.016;8.714;2023-05-10T09:40:24;26.40;;;15.73;;
3597;SDS011;1813;52.016;8.714;2023-05-10T09:43:00;25.90;;;14.80;;
3597;SDS011;1813;52.016;8.714;2023-05-10T09:45:36;28.57;;;17.77;;
3597;SDS011;1813;52.016;8.714;2023-05-10T09:48:10;38.90;;;18.70;;
3597;SDS011;1813;52.016;8.714;2023-05-10T09:50:46;32.93;;;18.80;;
3597;SDS011;1813;52.016;8.714;2023-05-10T09:53:30;31.60;;;19.00;;
3597;SDS011;1813;52.016;8.714;2023-05-10T09:56:04;35.03;;;19.70;;
3597;SDS011;1813;52.016;8.714;2023-05-10T09:58:38;34.13;;;19.50;;
3597;SDS011;1813;52.016;8.714;2023-05-10T10:01:12;30.20;;;18.53;;
3597;SDS011;1813;52.016;8.714;2023-05-10T10:03:46;32.47;;;19.53;;
3597;SDS011;1813;52.016;8.714;2023-05-10T10:06:25;27.07;;;16.87;;
3597;SDS011;1813;52.016;8.714;2023-05-10T10:08:59;30.30;;;17.10;;
3597;SDS011;1813;52.016;8.714;2023-05-10T10:11:34;26.90;;;17.77;;
3597;SDS011;1813;52.016;8.714;2023-05-10T10:14:08;25.87;;;16.80;;
3597;SDS011;1813;52.016;8.714;2023-05-10T10:16:42;29.00;;;17.03;;
3597;SDS011;1813;52.016;8.714;2023-05-10T10:19:16;25.40;;;16.00;;
3597;SDS011;1813;52.016;8.714;2023-05-10T10:21:53;28.10;;;17.53;;
3597;SDS011;1813;52.016;8.714;2023-05-10T10:24:27;25.00;;;16.30;;
3597;SDS011;1813;52.016;8.714;2023-05-10T10:27:04;23.67;;;16.77;;
3597;SDS011;1813;52.016;8.714;2023-05-10T10:29:49;20.57;;;14.83;;
3597;SDS011;1813;52.016;8.714;2023-05-10T10:32:35;27.20;;;16.83;;
3597;SDS011;1813;52.016;8.714;2023-05-10T10:35:22;23.20;;;15.73;;
3597;SDS011;1813;52.016;8.714;2023-05-10T10:37:58;21.93;;;13.70;;
3597;SDS011;1813;52.016;8.714;2023-05-10T10:40:33;24.83;;;13.23;;
3597;SDS011;1813;52.016;8.714;2023-05-10T10:43:20;21.30;;;13.20;;
3597;SDS011;1813;52.016;8.714;2023-05-10T10:46:11;19.40;;;12.90;;
3597;SDS011;1813;52.016;8.714;2023-05-10T10:48:48;22.10;;;14.67;;
3597;SDS011;1813;52.016;8.714;2023-05-10T10:51:24;18.73;;;12.30;;
3597;SDS011;1813;52.016;8.714;2023-05-10T10:54:11;17.73;;;12.00;;
3597;SDS011;1813;52.016;8.714;2023-05-10T10:56:46;14.40;;;10.20;;
3597;SDS011;1813;52.016;8.714;2023-05-10T10:59:46;15.93;;;11.03;;
3597;SDS011;1813;52.016;8.714;2023-05-10T11:02:33;14.63;;;8.27;;
3597;SDS011;1813;52.016;8.714;2023-05-10T11:08:18;9.70;;;6.43;;
3597;SDS011;1813;52.016;8.714;2023-05-10T11:11:05;8.90;;;6.50;;
3597;SDS011;1813;52.016;8.714;2023-05-10T11:13:41;9.03;;;5.83;;
3597;SDS011;1813;52.016;8.714;2023-05-10T11:16:17;7.77;;;5.60;;
3597;SDS011;1813;52.016;8.714;2023-05-10T11:19:01;9.10;;;5.30;;
3597;SDS011;1813;52.016;8.714;2023-05-10T11:21:44;10.13;;;5.80;;
3597;SDS011;1813;52.016;8.714;2023-05-10T11:24:20;6.70;;;5.10;;
3597;SDS011;1813;52.016;8.714;2023-05-10T11:26:58;7.27;;;5.57;;
3597;SDS011;1813;52.016;8.714;2023-05-10T11:29:33;13.93;;;8.50;;
3597;SDS011;1813;52.016;8.714;2023-05-10T11:32:06;16.13;;;11.87;;
3597;SDS011;1813;52.016;8.714;2023-05-10T11:34:40;15.70;;;10.50;;
3597;SDS011;1813;52.016;8.714;2023-05-10T11:37:14;14.47;;;9.70;;
3597;SDS011;1813;52.016;8.714;2023-05-10T11:39:48;12.87;;;9.90;;
3597;SDS011;1813;52.016;8.714;2023-05-10T11:42:24;13.13;;;9.20;;
3597;SDS011;1813;52.016;8.714;2023-05-10T11:44:58;12.17;;;8.17;;
3597;SDS011;1813;52.016;8.714;2023-05-10T11:47:33;14.60;;;9.50;;
3597;SDS011;1813;52.016;8.714;2023-05-10T11:50:10;11.10;;;8.53;;
3597;SDS011;1813;52.016;8.714;2023-05-10T11:52:44;14.10;;;8.70;;
3597;SDS011;1813;52.016;8.714;2023-05-10T11:55:18;12.50;;;9.80;;
3597;SDS011;1813;52.016;8.714;2023-05-10T11:57:55;13.07;;;8.33;;
3597;SDS011;1813;52.016;8.714;2023-05-10T12:00:34;12.60;;;8.67;;
3597;SDS011;1813;52.016;8.714;2023-05-10T12:03:08;11.37;;;8.40;;
3597;SDS011;1813;52.016;8.714;2023-05-10T12:05:42;10.27;;;7.23;;
3597;SDS011;1813;52.016;8.714;2023-05-10T12:08:16;8.37;;;6.67;;
3597;SDS011;1813;52.016;8.714;2023-05-10T12:11:04;8.80;;;6.27;;
3597;SDS011;1813;52.016;8.714;2023-05-10T12:13:43;13.90;;;7.47;;
3597;SDS011;1813;52.016;8.714;2023-05-10T12:16:19;12.23;;;6.77;;
3597;SDS011;1813;52.016;8.714;2023-05-10T12:18:55;9.10;;;6.10;;
3597;SDS011;1813;52.016;8.714;2023-05-10T12:21:30;9.50;;;6.10;;
3597;SDS011;1813;52.016;8.714;2023-05-10T12:24:04;7.83;;;5.93;;
3597;SDS011;1813;52.016;8.714;2023-05-10T12:26:38;13.10;;;6.47;;
3597;SDS011;1813;52.016;8.714;2023-05-10T12:29:15;12.87;;;6.10;;
3597;SDS011;1813;52.016;8.714;2023-05-10T12:31:51;10.60;;;6.20;;
3597;SDS011;1813;52.016;8.714;2023-05-10T12:34:29;19.17;;;8.17;;
3597;SDS011;1813;52.016;8.714;2023-05-10T12:37:03;18.63;;;11.07;;
3597;SDS011;1813;52.016;8.714;2023-05-10T12:39:38;28.77;;;10.20;;
3597;SDS011;1813;52.016;8.714;2023-05-10T12:42:13;14.30;;;8.40;;
3597;SDS011;1813;52.016;8.714;2023-05-10T12:44:49;13.70;;;8.80;;
3597;SDS011;1813;52.016;8.714;2023-05-10T12:47:27;12.83;;;8.67;;
3597;SDS011;1813;52.016;8.714;2023-05-10T12:50:01;14.67;;;9.30;;
3597;SDS011;1813;52.016;8.714;2023-05-10T12:52:36;14.40;;;8.83;;
3597;SDS011;1813;52.016;8.714;2023-05-10T12:55:10;9.57;;;6.80;;
3597;SDS011;1813;52.016;8.714;2023-05-10T12:57:44;11.13;;;6.93;;
3597;SDS011;1813;52.016;8.714;2023-05-10T13:00:21;10.50;;;6.50;;
3597;SDS011;1813;52.016;8.714;2023-05-10T13:02:55;7.40;;;5.93;;
3597;SDS011;1813;52.016;8.714;2023-05-10T13:05:28;9.50;;;5.87;;
3597;SDS011;1813;52.016;8.714;2023-05-10T13:08:02;10.60;;;6.70;;
3597;SDS011;1813;52.016;8.714;2023-05-10T13:10:36;16.73;;;7.30;;
3597;SDS011;1813;52.016;8.714;2023-05-10T13:13:11;14.43;;;9.33;;
3597;SDS011;1813;52.016;8.714;2023-05-10T13:15:47;14.73;;;9.57;;
3597;SDS011;1813;52.016;8.714;2023-05-10T13:18:21;15.60;;;10.17;;
3597;SDS011;1813;52.016;8.714;2023-05-10T13:20:54;16.37;;;10.20;;
3597;SDS011;1813;52.016;8.714;2023-05-10T13:23:28;15.93;;;10.40;;
3597;SDS011;1813;52.016;8.714;2023-05-10T13:26:02;13.07;;;8.90;;
3597;SDS011;1813;52.016;8.714;2023-05-10T13:28:36;17.80;;;10.93;;
3597;SDS011;1813;52.016;8.714;2023-05-10T13:31:13;14.43;;;10.40;;
3597;SDS011;1813;52.016;8.714;2023-05-10T13:33:47;18.90;;;10.70;;
3597;SDS011;1813;52.016;8.714;2023-05-10T13:36:21;15.97;;;10.67;;
3597;SDS011;1813;52.016;8.714;2023-05-10T13:38:54;12.53;;;8.93;;
3597;SDS011;1813;52.016;8.714;2023-05-10T13:41:28;14.53;;;8.30;;
3597;SDS011;1813;52.016;8.714;2023-05-10T13:44:02;11.23;;;7.63;;
3597;SDS011;1813;52.016;8.714;2023-05-10T13:46:39;16.37;;;10.23;;
3597;SDS011;1813;52.016;8.714;2023-05-10T13:49:13;15.17;;;10.07;;
3597;SDS011;1813;52.016;8.714;2023-05-10T13:51:46;19.70;;;10.10;;
3597;SDS011;1813;52.016;8.714;2023-05-10T13:54:21;17.33;;;10.50;;
3597;SDS011;1813;52.016;8.714;2023-05-10T13:56:55;15.93;;;10.83;;
3597;SDS011;1813;52.016;8.714;2023-05-10T13:59:29;20.13;;;11.13;;
3597;SDS011;1813;52.016;8.714;2023-05-10T14:02:06;17.30;;;11.93;;
3597;SDS011;1813;52.016;8.714;2023-05-10T14:04:40;10.93;;;7.47;;
3597;SDS011;1813;52.016;8.714;2023-05-10T14:07:15;8.60;;;7.33;;
3597;SDS011;1813;52.016;8.714;2023-05-10T14:09:48;15.03;;;8.70;;
3597;SDS011;1813;52.016;8.714;2023-05-10T14:12:23;11.20;;;7.20;;
3597;SDS011;1813;52.016;8.714;2023-05-10T14:14:57;10.97;;;7.83;;
3597;SDS011;1813;52.016;8.714;2023-05-10T14:17:35;11.90;;;8.13;;
3597;SDS011;1813;52.016;8.714;2023-05-10T14:20:09;13.37;;;8.47;;
3597;SDS011;1813;52.016;8.714;2023-05-10T14:22:44;16.10;;;8.90;;
3597;SDS011;1813;52.016;8.714;2023-05-10T14:25:18;15.10;;;9.27;;
3597;SDS011;1813;52.016;8.714;2023-05-10T14:27:52;13.00;;;8.40;;
3597;SDS011;1813;52.016;8.714;2023-05-10T14:30:26;9.63;;;7.17;;
3597;SDS011;1813;52.016;8.714;2023-05-10T14:33:04;11.33;;;6.83;;
3597;SDS011;1813;52.016;8.714;2023-05-10T14:35:38;11.10;;;6.90;;
3597;SDS011;1813;52.016;8.714;2023-05-10T14:38:13;8.93;;;6.43;;
3597;SDS011;1813;52.016;8.714;2023-05-10T14:40:48;9.70;;;6.53;;
3597;SDS011;1813;52.016;8.714;2023-05-10T14:43:23;11.47;;;6.23;;
3597;SDS011;1813;52.016;8.714;2023-05-10T14:45:58;8.77;;;6.30;;
3597;SDS011;1813;52.016;8.714;2023-05-10T14:48:34;8.47;;;6.63;;
3597;SDS011;1813;52.016;8.714;2023-05-10T14:51:08;11.37;;;8.17;;
3597;SDS011;1813;52.016;8.714;2023-05-10T14:53:42;13.10;;;9.40;;
3597;SDS011;1813;52.016;8.714;2023-05-10T14:56:16;17.47;;;10.30;;
3597;SDS011;1813;52.016;8.714;2023-05-10T14:58:51;18.70;;;9.90;;
3597;SDS011;1813;52.016;8.714;2023-05-10T15:01:26;18.07;;;10.13;;
3597;SDS011;1813;52.016;8.714;2023-05-10T15:04:06;17.03;;;10.27;;
3597;SDS011;1813;52.016;8.714;2023-05-10T15:06:39;19.10;;;10.17;;
3597;SDS011;1813;52.016;8.714;2023-05-10T15:09:13;13.83;;;9.70;;
3597;SDS011;1813;52.016;8.714;2023-05-10T15:11:47;16.30;;;10.03;;
3597;SDS011;1813;52.016;8.714;2023-05-10T15:14:21;17.80;;;10.70;;
3597;SDS011;1813;52.016;8.714;2023-05-10T15:16:55;19.97;;;11.10;;
3597;SDS011;1813;52.016;8.714;2023-05-10T15:19:32;20.47;;;10.80;;
3597;SDS011;1813;52.016;8.714;2023-05-10T15:22:06;18.57;;;10.80;;
3597;SDS011;1813;52.016;8.714;2023-05-10T15:24:40;20.10;;;10.87;;
3597;SDS011;1813;52.016;8.714;2023-05-10T15:27:14;18.30;;;11.40;;
3597;SDS011;1813;52.016;8.714;2023-05-10T15:29:48;21.87;;;11.40;;
3597;SDS011;1813;52.016;8.714;2023-05-10T15:32:22;18.23;;;11.30;;
3597;SDS011;1813;52.016;8.714;2023-05-10T15:34:58;22.43;;;12.70;;
3597;SDS011;1813;52.016;8.714;2023-05-10T15:37:32;16.60;;;11.63;;
3597;SDS011;1813;52.016;8.714;2023-05-10T15:40:07;29.03;;;11.80;;
3597;SDS011;1813;52.016;8.714;2023-05-10T15:42:41;17.67;;;12.00;;
3597;SDS011;1813;52.016;8.714;2023-05-10T15:45:15;16.87;;;11.30;;
3597;SDS011;1813;52.016;8.714;2023-05-10T15:47:49;22.07;;;13.93;;
3597;SDS011;1813;52.016;8.714;2023-05-10T15:50:26;20.20;;;12.77;;
3597;SDS011;1813;52.016;8.714;2023-05-10T15:53:00;21.10;;;13.47;;
3597;SDS011;1813;52.016;8.714;2023-05-10T15:55:34;22.23;;;13.50;;
3597;SDS011;1813;52.016;8.714;2023-05-10T15:58:08;18.83;;;12.70;;
3597;SDS011;1813;52.016;8.714;2023-05-10T16:00:41;21.10;;;12.73;;
3597;SDS011;1813;52.016;8.714;2023-05-10T16:03:15;20.63;;;13.10;;
3597;SDS011;1813;52.016;8.714;2023-05-10T16:05:51;18.47;;;12.30;;